createdAt,value
2019-04-29T00:01:17.905Z,82.89
2019-04-29T00:03:25.828Z,81.29
2019-04-29T00:05:33.455Z,82.08
2019-04-29T00:07:41.282Z,84.93
2019-04-29T00:09:49.167Z,84.00
2019-04-29T00:11:57.345Z,82.08
2019-04-29T00:14:05.275Z,81.82
2019-04-29T00:16:32.201Z,82.66
2019-04-29T00:18:55.032Z,81.89
2019-04-29T00:21:02.917Z,84.37
2019-04-29T00:23:10.830Z,84.41
2019-04-29T00:25:18.706Z,82.20
2019-04-29T00:27:26.634Z,83.33
2019-04-29T00:29:34.499Z,81.43
2019-04-29T00:31:42.282Z,83.73
2019-04-29T00:33:50.051Z,82.66
2019-04-29T00:35:57.859Z,85.07
2019-04-29T00:38:24.561Z,85.67
2019-04-29T00:40:50.561Z,84.60
2019-04-29T00:43:23.084Z,85.72
2019-04-29T00:45:31.109Z,85.92
2019-04-29T00:47:39.092Z,86.34
2019-04-29T00:49:46.891Z,84.86
2019-04-29T00:51:54.787Z,85.31
2019-04-29T00:54:07.784Z,82.66
2019-04-29T00:56:15.514Z,81.95
2019-04-29T00:58:23.184Z,83.37
2019-04-29T01:00:40.060Z,82.87
2019-04-29T01:02:47.863Z,81.68
2019-04-29T01:04:55.557Z,80.69
2019-04-29T01:07:03.384Z,83.00
2019-04-29T01:09:14.203Z,83.79
2019-04-29T01:11:21.936Z,84.31
2019-04-29T01:13:29.691Z,83.47
2019-04-29T01:15:37.710Z,84.05
2019-04-29T01:17:45.430Z,84.74
2019-04-29T01:19:53.122Z,85.76
2019-04-29T01:22:01.180Z,86.26
2019-04-29T01:24:08.906Z,85.43
2019-04-29T01:26:35.454Z,85.35
2019-04-29T01:28:51.012Z,83.65
2019-04-29T01:31:07.047Z,82.88
2019-04-29T01:33:14.763Z,81.63
2019-04-29T01:35:22.370Z,83.43
2019-04-29T01:37:37.325Z,83.79
2019-04-29T01:40:09.841Z,82.84
2019-04-29T01:42:30.368Z,83.86
2019-04-29T01:44:38.822Z,85.83
2019-04-29T01:46:46.725Z,85.80
2019-04-29T01:48:54.374Z,85.28
2019-04-29T01:51:02.042Z,86.47
2019-04-29T01:53:10.284Z,86.71
2019-04-29T01:55:18.029Z,86.26
2019-04-29T01:57:25.481Z,85.20
2019-04-29T01:59:33.292Z,84.92
2019-04-29T02:01:40.994Z,85.51
2019-04-29T02:03:48.751Z,82.69
2019-04-29T02:05:56.539Z,84.25
2019-04-29T02:08:04.141Z,84.37
2019-04-29T02:10:37.133Z,85.56
2019-04-29T02:12:44.928Z,83.78
2019-04-29T02:14:52.553Z,84.26
2019-04-29T02:17:00.307Z,84.85
2019-04-29T02:19:08.063Z,82.62
2019-04-29T02:21:15.724Z,81.70
2019-04-29T02:23:45.204Z,82.89
2019-04-29T02:25:53.125Z,80.89
2019-04-29T02:28:00.900Z,81.81
2019-04-29T02:30:10.441Z,82.58
2019-04-29T02:32:18.097Z,82.49
2019-04-29T02:34:25.822Z,82.26
2019-04-29T02:36:33.497Z,82.73
2019-04-29T02:38:59.931Z,83.72
2019-04-29T02:41:26.822Z,83.65
2019-04-29T02:43:36.182Z,80.47
2019-04-29T02:45:43.985Z,81.12
2019-04-29T02:47:51.654Z,81.94
2019-04-29T02:49:59.485Z,82.25
2019-04-29T02:52:07.483Z,81.49
2019-04-29T02:54:15.446Z,82.25
2019-04-29T02:56:23.203Z,83.05
2019-04-29T02:58:58.569Z,82.63
2019-04-29T03:01:25.081Z,84.16
2019-04-29T03:04:00.307Z,81.48
2019-04-29T03:06:08.271Z,80.91
2019-04-29T03:08:16.047Z,83.27
2019-04-29T03:10:23.859Z,82.54
2019-04-29T03:12:31.596Z,80.88
2019-04-29T03:14:39.662Z,82.49
2019-04-29T03:16:47.549Z,83.91
2019-04-29T03:19:00.101Z,82.85
2019-04-29T03:21:19.409Z,82.85
2019-04-29T03:23:27.500Z,81.60
2019-04-29T03:25:35.377Z,81.64
2019-04-29T03:27:43.236Z,82.74
2019-04-29T03:29:51.039Z,82.49
2019-04-29T03:31:59.246Z,83.19
2019-04-29T03:34:15.429Z,83.69
2019-04-29T03:36:23.228Z,83.31
2019-04-29T03:38:31.016Z,81.93
2019-04-29T03:40:38.930Z,83.07
2019-04-29T03:42:52.262Z,82.16
2019-04-29T03:44:59.925Z,84.18
2019-04-29T03:47:07.862Z,84.73
2019-04-29T03:49:15.622Z,83.68
2019-04-29T03:51:23.323Z,83.35
2019-04-29T03:53:30.953Z,84.45
2019-04-29T03:55:40.679Z,83.66
2019-04-29T03:57:48.277Z,84.40
2019-04-29T03:59:57.168Z,84.18
2019-04-29T04:02:16.081Z,84.77
2019-04-29T04:04:42.826Z,84.25
2019-04-29T04:06:59.006Z,84.59
2019-04-29T04:09:19.628Z,85.17
2019-04-29T04:11:27.158Z,84.29
2019-04-29T04:13:35.052Z,82.95
2019-04-29T04:15:43.016Z,83.35
2019-04-29T04:17:59.830Z,85.73
2019-04-29T04:20:09.084Z,85.68
2019-04-29T04:22:16.840Z,85.89
2019-04-29T04:24:24.674Z,86.37
2019-04-29T04:26:32.411Z,85.55
2019-04-29T04:28:40.110Z,82.66
2019-04-29T04:30:47.889Z,82.67
2019-04-29T04:32:55.716Z,81.51
2019-04-29T04:35:03.629Z,81.36
2019-04-29T04:37:11.416Z,80.95
2019-04-29T04:39:19.126Z,83.02
2019-04-29T04:41:26.916Z,83.60
2019-04-29T04:43:34.604Z,85.12
2019-04-29T04:45:42.343Z,83.97
2019-04-29T04:47:50.171Z,84.44
2019-04-29T04:49:57.850Z,81.76
2019-04-29T04:52:05.620Z,82.60
2019-04-29T04:54:13.375Z,82.23
2019-04-29T04:56:21.127Z,81.80
2019-04-29T04:58:28.951Z,82.13
2019-04-29T05:00:38.042Z,80.61
2019-04-29T05:02:45.823Z,83.23
2019-04-29T05:04:53.434Z,81.85
2019-04-29T05:07:01.198Z,79.82
2019-04-29T05:09:09.233Z,80.87
2019-04-29T05:11:17.092Z,80.63
2019-04-29T05:13:28.198Z,82.85
2019-04-29T05:15:34.954Z,82.59
2019-04-29T05:17:42.785Z,81.73
2019-04-29T05:19:50.549Z,83.13
2019-04-29T05:21:58.417Z,82.85
2019-04-29T05:24:06.157Z,82.10
2019-04-29T05:26:13.903Z,83.05
2019-04-29T05:28:21.643Z,83.68
2019-04-29T05:30:29.425Z,81.99
2019-04-29T05:32:37.231Z,80.19
2019-04-29T05:34:48.280Z,79.07
2019-04-29T05:37:12.131Z,82.79
2019-04-29T05:39:26.284Z,80.64
2019-04-29T05:41:34.770Z,78.42
2019-04-29T05:43:52.418Z,80.75
2019-04-29T05:46:12.464Z,79.49
2019-04-29T05:48:20.620Z,80.07
2019-04-29T05:50:52.178Z,77.19
2019-04-29T05:53:05.013Z,78.18
2019-04-29T05:55:13.695Z,78.63
2019-04-29T05:57:25.254Z,78.13
2019-04-29T05:59:31.914Z,79.44
2019-04-29T06:01:42.617Z,77.86
2019-04-29T06:03:49.293Z,78.05
2019-04-29T06:05:57.191Z,77.64
2019-04-29T06:08:04.972Z,79.69
2019-04-29T06:10:12.816Z,76.85
2019-04-29T06:12:20.559Z,78.89
2019-04-29T06:14:28.214Z,79.93
2019-04-29T06:16:36.109Z,79.20
2019-04-29T06:18:44.069Z,77.86
2019-04-29T06:20:51.986Z,79.53
2019-04-29T06:22:59.773Z,80.47
2019-04-29T06:25:07.826Z,80.53
2019-04-29T06:27:15.595Z,79.03
2019-04-29T06:29:23.467Z,78.39
2019-04-29T06:31:31.212Z,77.99
2019-04-29T06:33:38.657Z,78.87
2019-04-29T06:35:47.440Z,79.46
2019-04-29T06:37:56.197Z,77.15
2019-04-29T06:40:04.151Z,79.83
2019-04-29T06:42:15.430Z,78.49
2019-04-29T06:44:21.339Z,79.65
2019-04-29T06:46:29.099Z,79.83
2019-04-29T06:48:37.152Z,79.29
2019-04-29T06:50:44.960Z,76.92
2019-04-29T06:52:52.828Z,75.95
2019-04-29T06:55:00.754Z,76.70
2019-04-29T06:57:08.516Z,78.45
2019-04-29T06:59:16.395Z,76.25
2019-04-29T07:01:24.236Z,75.21
2019-04-29T07:03:31.989Z,76.81
2019-04-29T07:05:39.812Z,76.34
2019-04-29T07:07:47.583Z,75.72
2019-04-29T07:09:56.987Z,77.89
2019-04-29T07:12:08.131Z,77.50
2019-04-29T07:14:14.809Z,75.52
2019-04-29T07:16:27.205Z,77.04
2019-04-29T07:18:32.366Z,77.31
2019-04-29T07:20:40.238Z,76.54
2019-04-29T07:22:48.174Z,76.79
2019-04-29T07:24:55.960Z,75.92
2019-04-29T07:27:04.498Z,75.94
2019-04-29T07:29:12.290Z,76.19
2019-04-29T07:31:20.533Z,74.73
2019-04-29T07:33:28.544Z,76.34
2019-04-29T07:35:38.168Z,75.56
2019-04-29T07:37:45.711Z,74.97
2019-04-29T07:39:53.555Z,73.94
2019-04-29T07:42:03.241Z,75.23
2019-04-29T07:44:13.770Z,75.36
2019-04-29T07:46:56.389Z,74.47
2019-04-29T07:49:01.694Z,74.99
2019-04-29T07:51:05.941Z,74.67
2019-04-29T07:53:14.145Z,73.96
2019-04-29T07:55:25.903Z,73.02
2019-04-29T07:57:31.335Z,72.45
2019-04-29T07:59:39.701Z,72.78
2019-04-29T08:01:47.531Z,73.05
2019-04-29T08:03:55.243Z,72.03
2019-04-29T08:06:03.215Z,72.26
2019-04-29T08:08:11.215Z,72.00
2019-04-29T08:10:23.763Z,72.25
2019-04-29T08:12:33.129Z,71.57
2019-04-29T08:14:41.973Z,71.11
2019-04-29T08:16:49.759Z,71.64
2019-04-29T08:18:57.731Z,71.50
2019-04-29T08:21:05.716Z,71.63
2019-04-29T08:23:13.511Z,70.49
2019-04-29T08:25:21.780Z,71.13
2019-04-29T08:27:39.910Z,70.64
2019-04-29T08:29:40.510Z,70.88
2019-04-29T08:31:51.825Z,70.01
2019-04-29T08:33:57.770Z,70.95
2019-04-29T08:36:05.834Z,70.11
2019-04-29T08:38:13.389Z,69.59
2019-04-29T08:40:21.210Z,70.39
2019-04-29T08:42:32.124Z,69.29
2019-04-29T08:45:07.819Z,69.24
2019-04-29T08:47:23.583Z,68.58
2019-04-29T08:49:30.909Z,69.19
2019-04-29T08:51:38.656Z,68.16
2019-04-29T08:53:46.380Z,65.94
2019-04-29T08:55:54.195Z,67.35
2019-04-29T08:58:02.172Z,67.85
2019-04-29T09:00:12.166Z,66.74
2019-04-29T09:02:33.566Z,66.14
2019-04-29T09:04:33.274Z,66.08
2019-04-29T09:06:40.722Z,65.79
2019-04-29T09:08:55.513Z,62.45
2019-04-29T09:10:58.077Z,64.18
2019-04-29T09:13:05.964Z,65.36
2019-04-29T09:15:14.568Z,63.43
2019-04-29T09:17:22.578Z,64.76
2019-04-29T09:19:30.464Z,64.19
2019-04-29T09:21:39.868Z,62.36
2019-04-29T09:23:47.720Z,62.45
2019-04-29T09:26:05.349Z,63.05
2019-04-29T09:28:17.972Z,62.94
2019-04-29T09:30:23.637Z,61.62
2019-04-29T09:32:33.957Z,62.17
2019-04-29T09:34:40.823Z,61.26
2019-04-29T09:36:49.834Z,60.26
2019-04-29T09:38:57.683Z,61.07
2019-04-29T09:41:12.747Z,61.25
2019-04-29T09:43:41.750Z,60.04
2019-04-29T09:46:03.465Z,60.18
2019-04-29T09:48:11.247Z,58.22
2019-04-29T09:50:19.520Z,58.57
2019-04-29T09:52:27.313Z,57.69
2019-04-29T09:54:35.097Z,58.86
2019-04-29T09:56:43.537Z,58.55
2019-04-29T09:58:54.450Z,57.60
2019-04-29T10:01:18.931Z,56.95
2019-04-29T10:03:44.031Z,56.41
2019-04-29T10:06:05.339Z,56.51
2019-04-29T10:08:13.283Z,56.88
2019-04-29T10:10:21.263Z,57.58
2019-04-29T10:12:28.948Z,57.27
2019-04-29T10:14:36.792Z,56.51
2019-04-29T10:17:03.329Z,56.80
2019-04-29T10:19:25.161Z,55.15
2019-04-29T10:21:33.062Z,53.83
2019-04-29T10:23:40.925Z,53.86
2019-04-29T10:25:48.847Z,55.68
2019-04-29T10:27:56.442Z,54.62
2019-04-29T10:30:06.136Z,55.02
2019-04-29T10:32:14.754Z,54.01
2019-04-29T10:34:22.583Z,54.76
2019-04-29T10:36:30.273Z,54.94
2019-04-29T10:38:40.448Z,53.03
2019-04-29T10:41:03.586Z,54.71
2019-04-29T10:43:20.696Z,54.53
2019-04-29T10:45:47.305Z,54.08
2019-04-29T10:48:03.799Z,53.96
2019-04-29T10:50:16.810Z,54.63
2019-04-29T10:52:24.506Z,53.22
2019-04-29T10:54:32.723Z,53.43
2019-04-29T10:56:41.067Z,52.93
2019-04-29T10:58:49.008Z,53.79
2019-04-29T11:02:09.310Z,53.46
2019-04-29T11:04:14.673Z,52.32
2019-04-29T11:06:22.078Z,51.10
2019-04-29T11:08:48.233Z,52.26
2019-04-29T11:11:02.274Z,50.52
2019-04-29T11:13:07.002Z,52.49
2019-04-29T11:15:16.096Z,51.42
2019-04-29T11:17:25.662Z,49.96
2019-04-29T11:19:35.047Z,49.69
2019-04-29T11:21:42.889Z,47.98
2019-04-29T11:24:15.667Z,47.75
2019-04-29T11:26:46.691Z,50.28
2019-04-29T11:28:56.107Z,48.40
2019-04-29T11:31:04.163Z,48.59
2019-04-29T11:33:18.210Z,48.66
2019-04-29T11:35:32.212Z,49.10
2019-04-29T11:37:40.037Z,49.06
2019-04-29T11:39:50.312Z,49.33
2019-04-29T11:41:59.784Z,49.98
2019-04-29T11:44:07.153Z,49.08
2019-04-29T11:46:15.745Z,50.53
2019-04-29T11:48:23.592Z,50.11
2019-04-29T11:50:40.363Z,49.50
2019-04-29T11:52:48.279Z,48.82
2019-04-29T11:54:56.372Z,49.86
2019-04-29T11:57:04.117Z,50.23
2019-04-29T11:59:35.240Z,48.59
2019-04-29T12:02:10.818Z,49.43
2019-04-29T12:04:49.579Z,48.32
2019-04-29T12:06:58.413Z,48.74
2019-04-29T12:09:08.907Z,49.86
2019-04-29T12:11:17.026Z,50.36
2019-04-29T12:13:43.947Z,50.24
2019-04-29T12:15:58.425Z,48.54
2019-04-29T12:18:12.943Z,48.75
2019-04-29T12:20:42.568Z,47.64
2019-04-29T12:22:50.416Z,48.95
2019-04-29T12:24:58.323Z,48.73
2019-04-29T12:27:06.890Z,48.38
2019-04-29T12:29:18.261Z,48.29
2019-04-29T12:31:30.882Z,47.03
2019-04-29T12:33:46.977Z,46.60
2019-04-29T12:36:03.268Z,47.10
2019-04-29T12:38:48.843Z,47.47
2019-04-29T12:41:20.198Z,47.67
2019-04-29T12:43:33.559Z,47.40
2019-04-29T12:45:47.068Z,48.84
2019-04-29T12:47:54.848Z,48.96
2019-04-29T12:50:02.623Z,49.34
2019-04-29T12:52:10.457Z,49.18
2019-04-29T12:54:18.416Z,49.43
2019-04-29T12:56:33.304Z,49.64
2019-04-29T12:58:41.186Z,49.47
2019-04-29T13:00:56.133Z,49.01
2019-04-29T13:03:23.256Z,49.94
2019-04-29T13:05:58.404Z,49.21
2019-04-29T13:08:24.119Z,49.01
2019-04-29T13:10:46.547Z,47.95
2019-04-29T13:12:54.395Z,47.24
2019-04-29T13:15:14.259Z,45.77
2019-04-29T13:17:35.585Z,46.38
2019-04-29T13:20:02.039Z,46.67
2019-04-29T13:22:04.274Z,45.62
2019-04-29T13:24:23.030Z,46.52
2019-04-29T13:26:28.116Z,46.72
2019-04-29T13:28:34.466Z,46.09
2019-04-29T13:30:43.356Z,45.28
2019-04-29T13:32:50.306Z,45.95
2019-04-29T13:35:05.218Z,45.30
2019-04-29T13:37:18.382Z,45.46
2019-04-29T13:39:37.849Z,46.04
2019-04-29T13:41:29.588Z,45.26
2019-04-29T13:43:37.520Z,45.51
2019-04-29T13:45:51.171Z,45.45
2019-04-29T13:48:17.680Z,45.63
2019-04-29T13:50:50.414Z,45.50
2019-04-29T13:52:58.263Z,45.17
2019-04-29T13:55:17.045Z,44.54
2019-04-29T13:57:16.453Z,44.17
2019-04-29T13:59:37.577Z,44.21
2019-04-29T14:02:29.145Z,43.01
2019-04-29T14:04:36.308Z,44.34
2019-04-29T14:06:56.755Z,43.92
2019-04-29T14:08:55.185Z,43.70
2019-04-29T14:11:02.839Z,44.30
2019-04-29T14:13:16.348Z,43.85
2019-04-29T14:15:21.556Z,42.98
2019-04-29T14:17:31.674Z,43.36
2019-04-29T14:19:42.257Z,45.29
2019-04-29T14:21:48.830Z,44.69
2019-04-29T14:23:56.677Z,45.49
2019-04-29T14:26:04.607Z,44.49
2019-04-29T14:28:12.387Z,46.54
2019-04-29T14:30:21.337Z,48.66
2019-04-29T14:32:35.819Z,49.06
2019-04-29T14:34:46.340Z,50.36
2019-04-29T14:36:57.416Z,51.66
2019-04-29T14:39:03.604Z,52.18
2019-04-29T14:41:14.049Z,52.86
2019-04-29T14:43:50.640Z,53.18
2019-04-29T14:46:27.439Z,53.50
2019-04-29T14:48:59.597Z,52.96
2019-04-29T14:51:08.911Z,54.05
2019-04-29T14:53:19.537Z,54.51
2019-04-29T14:55:27.057Z,58.58
2019-04-29T14:57:34.891Z,63.29
2019-04-29T14:59:42.839Z,63.14
2019-04-29T15:02:16.117Z,65.86
2019-04-29T15:04:21.438Z,67.94
2019-04-29T15:06:29.564Z,67.96
2019-04-29T15:08:38.210Z,69.09
2019-04-29T15:10:47.971Z,68.17
2019-04-29T15:13:11.536Z,68.02
2019-04-29T15:15:18.943Z,66.85
2019-04-29T15:17:46.347Z,68.78
2019-04-29T15:20:04.889Z,69.11
2019-04-29T15:22:13.323Z,64.53
2019-04-29T15:24:21.136Z,66.20
2019-04-29T15:26:29.084Z,68.16
2019-04-29T15:28:51.439Z,67.52
2019-04-29T15:30:59.668Z,67.40
2019-04-29T15:33:07.705Z,65.51
2019-04-29T15:35:19.717Z,64.72
2019-04-29T15:37:25.232Z,65.82
2019-04-29T15:39:33.405Z,65.16
2019-04-29T15:41:41.370Z,66.59
2019-04-29T15:43:49.168Z,66.11
2019-04-29T15:45:57.059Z,66.67
2019-04-29T15:48:04.915Z,65.51
2019-04-29T15:50:18.816Z,64.22
2019-04-29T15:52:26.000Z,64.78
2019-04-29T15:54:32.313Z,63.82
2019-04-29T15:56:40.528Z,65.66
2019-04-29T15:58:48.479Z,65.66
2019-04-29T16:01:11.779Z,64.66
2019-04-29T16:03:06.147Z,65.10
2019-04-29T16:05:29.025Z,64.17
2019-04-29T16:07:51.608Z,64.24
2019-04-29T16:10:25.820Z,63.19
2019-04-29T16:12:39.104Z,63.80
2019-04-29T16:14:49.162Z,64.12
2019-04-29T16:16:56.810Z,64.25
2019-04-29T16:21:15.045Z,65.71
2019-04-29T16:23:23.029Z,66.30
2019-04-29T16:25:30.773Z,64.38
2019-04-29T16:27:40.991Z,65.64
2019-04-29T16:29:51.578Z,64.25
2019-04-29T16:32:02.181Z,64.88
2019-04-29T16:34:07.707Z,65.08
2019-04-29T16:36:16.247Z,66.07
2019-04-29T16:38:25.443Z,67.06
2019-04-29T16:40:39.268Z,66.41
2019-04-29T16:43:14.870Z,66.52
2019-04-29T16:45:26.006Z,67.25
2019-04-29T16:47:34.165Z,67.99
2019-04-29T16:49:42.230Z,67.08
2019-04-29T16:51:53.789Z,67.04
2019-04-29T16:54:00.591Z,67.97
2019-04-29T16:56:15.785Z,68.02
2019-04-29T16:58:18.760Z,67.89
2019-04-29T17:00:29.175Z,67.88
2019-04-29T17:02:37.674Z,68.19
2019-04-29T17:04:45.899Z,68.40
2019-04-29T17:07:11.640Z,68.72
2019-04-29T17:09:23.098Z,69.83
2019-04-29T17:11:33.543Z,68.60
2019-04-29T17:13:41.487Z,68.82
2019-04-29T17:15:52.022Z,68.29
2019-04-29T17:17:59.389Z,68.82
2019-04-29T17:20:09.950Z,68.58
2019-04-29T17:22:25.443Z,68.48
2019-04-29T17:24:28.476Z,68.97
2019-04-29T17:26:55.533Z,68.88
2019-04-29T17:29:38.421Z,69.06
2019-04-29T17:31:56.117Z,69.02
2019-04-29T17:34:05.203Z,68.85
2019-04-29T17:35:13.992Z,64.11
2019-04-29T17:36:13.480Z,69.95
2019-04-29T17:38:21.412Z,69.42
2019-04-29T17:40:30.664Z,70.86
2019-04-29T17:42:40.040Z,70.84
2019-04-29T17:44:48.182Z,71.38
2019-04-29T17:47:14.460Z,71.76
2019-04-29T17:49:35.173Z,71.26
2019-04-29T17:51:43.355Z,71.62
2019-04-29T17:53:56.492Z,72.84
2019-04-29T17:56:24.678Z,73.43
2019-04-29T17:58:43.903Z,73.16
2019-04-29T18:01:17.063Z,73.07
2019-04-29T18:03:45.945Z,71.93
2019-04-29T18:06:23.779Z,69.12
2019-04-29T18:08:47.712Z,68.84
2019-04-29T18:10:59.947Z,69.91
2019-04-29T18:13:07.039Z,71.22
2019-04-29T18:15:20.034Z,71.20
2019-04-29T18:17:31.228Z,71.81
2019-04-29T18:19:58.009Z,72.50
2019-04-29T18:22:24.875Z,72.41
2019-04-29T18:24:56.739Z,73.04
2019-04-29T18:27:08.265Z,73.61
2019-04-29T18:29:16.246Z,73.31
2019-04-29T18:31:26.418Z,73.98
2019-04-29T18:33:35.134Z,71.08
2019-04-29T18:35:43.015Z,72.69
2019-04-29T18:37:51.136Z,73.69
2019-04-29T18:40:02.313Z,72.62
2019-04-29T18:42:09.168Z,72.93
2019-04-29T18:44:19.586Z,71.98
2019-04-29T18:46:27.006Z,71.99
2019-04-29T18:48:35.383Z,72.44
2019-04-29T18:50:43.713Z,74.13
2019-04-29T18:52:51.618Z,74.27
2019-04-29T18:55:00.615Z,73.73
2019-04-29T18:57:08.395Z,74.20
2019-04-29T18:59:19.820Z,75.37
2019-04-29T19:01:28.811Z,74.67
2019-04-29T19:03:55.738Z,75.14
2019-04-29T19:06:10.079Z,75.30
2019-04-29T19:08:15.087Z,74.84
2019-04-29T19:10:32.171Z,75.55
2019-04-29T19:12:36.476Z,75.22
2019-04-29T19:14:45.979Z,75.33
2019-04-29T19:16:57.694Z,75.46
2019-04-29T19:19:03.066Z,76.06
2019-04-29T19:21:11.209Z,75.16
2019-04-29T19:23:22.279Z,73.73
2019-04-29T19:25:29.189Z,74.92
2019-04-29T19:27:39.746Z,75.87
2019-04-29T19:29:46.725Z,76.62
2019-04-29T19:31:54.984Z,76.23
2019-04-29T19:34:02.945Z,77.00
2019-04-29T19:36:17.075Z,76.08
2019-04-29T19:38:21.007Z,76.81
2019-04-29T19:40:30.641Z,77.39
2019-04-29T19:42:39.793Z,76.75
2019-04-29T19:44:48.454Z,76.21
2019-04-29T19:46:58.964Z,76.91
2019-04-29T19:49:09.883Z,77.16
2019-04-29T19:51:18.589Z,76.11
2019-04-29T19:53:26.404Z,76.52
2019-04-29T19:55:41.850Z,75.21
2019-04-29T19:57:48.363Z,76.13
2019-04-29T19:59:54.502Z,77.09
2019-04-29T20:02:08.587Z,76.05
2019-04-29T20:04:27.317Z,76.20
2019-04-29T20:06:37.395Z,76.49
2019-04-29T20:08:54.231Z,77.41
2019-04-29T20:11:01.053Z,77.36
2019-04-29T20:13:04.968Z,77.57
2019-04-29T20:15:16.421Z,77.16
2019-04-29T20:17:49.192Z,77.52
2019-04-29T20:20:29.816Z,76.99
2019-04-29T20:22:43.439Z,77.53
2019-04-29T20:24:50.735Z,77.42
2019-04-29T20:26:58.548Z,77.59
2019-04-29T20:29:07.422Z,77.37
2019-04-29T20:31:21.732Z,77.69
2019-04-29T20:33:25.696Z,77.94
2019-04-29T20:35:35.766Z,77.32
2019-04-29T20:37:43.788Z,77.14
2019-04-29T20:39:57.166Z,76.65
2019-04-29T20:42:06.440Z,76.74
2019-04-29T20:44:13.627Z,77.65
2019-04-29T20:46:21.616Z,77.31
2019-04-29T20:48:31.536Z,78.21
2019-04-29T20:50:41.003Z,77.23
2019-04-29T20:52:59.069Z,76.63
2019-04-29T20:55:07.369Z,78.11
2019-04-29T20:57:20.385Z,78.44
2019-04-29T20:59:25.864Z,78.10
2019-04-29T21:01:43.090Z,78.67
2019-04-29T21:03:52.159Z,78.43
2019-04-29T21:06:02.347Z,78.78
2019-04-29T21:08:14.550Z,78.49
2019-04-29T21:10:18.270Z,77.21
2019-04-29T21:12:41.809Z,78.46
2019-04-29T21:14:53.273Z,78.67
2019-04-29T21:17:02.309Z,78.48
2019-04-29T21:19:11.490Z,77.98
2019-04-29T21:21:19.359Z,78.31
2019-04-29T21:23:31.418Z,78.62
2019-04-29T21:25:37.729Z,78.59
2019-04-29T21:27:48.504Z,79.08
2019-04-29T21:29:55.674Z,78.39
2019-04-29T21:32:05.702Z,79.03
2019-04-29T21:34:15.145Z,78.55
2019-04-29T21:36:36.732Z,78.56
2019-04-29T21:39:01.816Z,78.42
2019-04-29T21:41:15.452Z,78.83
2019-04-29T21:43:26.110Z,77.44
2019-04-29T21:45:35.722Z,78.99
2019-04-29T21:47:45.686Z,79.40
2019-04-29T21:49:54.589Z,79.62
2019-04-29T21:52:03.266Z,79.50
2019-04-29T21:54:14.234Z,79.50
2019-04-29T21:56:21.100Z,79.31
2019-04-29T21:58:32.969Z,79.01
2019-04-29T22:00:38.524Z,79.30
2019-04-29T22:02:49.057Z,79.15
2019-04-29T22:04:55.932Z,79.25
2019-04-29T22:07:07.229Z,78.81
2019-04-29T22:09:15.928Z,77.84
2019-04-29T22:11:25.739Z,78.14
2019-04-29T22:13:37.524Z,78.70
2019-04-29T22:15:43.132Z,78.55
2019-04-29T22:17:56.357Z,79.41
2019-04-29T22:20:03.931Z,79.32
2019-04-29T22:22:10.148Z,79.18
2019-04-29T22:24:21.715Z,78.91
2019-04-29T22:26:27.506Z,79.22
2019-04-29T22:28:35.348Z,78.59
2019-04-29T22:30:43.184Z,77.98
2019-04-29T22:33:15.312Z,78.54
2019-04-29T22:35:25.196Z,79.15
2019-04-29T22:37:34.661Z,79.01
2019-04-29T22:39:42.336Z,79.30
2019-04-29T22:42:04.591Z,78.74
2019-04-29T22:44:15.126Z,78.39
2019-04-29T22:46:21.733Z,78.71
2019-04-29T22:48:29.399Z,78.73
2019-04-29T22:50:38.063Z,79.39
2019-04-29T22:52:46.681Z,79.46
2019-04-29T22:54:57.952Z,79.36
2019-04-29T22:57:05.594Z,78.16
2019-04-29T22:59:14.711Z,78.71
2019-04-29T23:01:22.452Z,78.66
2019-04-29T23:03:32.799Z,79.37
2019-04-29T23:05:39.434Z,79.54
2019-04-29T23:07:47.222Z,78.47
2019-04-29T23:09:55.528Z,78.75
2019-04-29T23:12:05.437Z,77.96
2019-04-29T23:14:15.155Z,78.13
2019-04-29T23:16:22.628Z,78.16
2019-04-29T23:18:41.078Z,78.55
2019-04-29T23:21:10.536Z,78.23
2019-04-29T23:23:27.308Z,78.42
2019-04-29T23:25:35.847Z,79.13
2019-04-29T23:27:44.111Z,78.00
2019-04-29T23:29:51.789Z,78.16
2019-04-29T23:32:03.782Z,79.15
2019-04-29T23:34:08.923Z,79.66
2019-04-29T23:36:16.569Z,79.40
2019-04-29T23:38:25.603Z,79.47
2019-04-29T23:40:33.244Z,79.51
2019-04-29T23:42:43.710Z,79.69
2019-04-29T23:44:50.511Z,79.45
2019-04-29T23:46:58.273Z,79.33
2019-04-29T23:49:06.731Z,79.67
2019-04-29T23:51:15.358Z,79.76
2019-04-29T23:53:25.141Z,78.99
2019-04-29T23:55:32.721Z,78.91
2019-04-29T23:57:55.514Z,77.79
